createdAt,value
2018-06-15T00:00:33.649Z,7.07
2018-06-15T00:03:05.038Z,7.63
2018-06-15T00:05:34.638Z,6.90
2018-06-15T00:08:03.581Z,7.13
2018-06-15T00:10:31.988Z,6.70
2018-06-15T00:13:01.500Z,7.60
2018-06-15T00:15:30.745Z,7.13
2018-06-15T00:18:08.096Z,7.20
2018-06-15T00:20:38.284Z,6.80
2018-06-15T00:23:07.048Z,7.33
2018-06-15T00:25:39.556Z,7.37
2018-06-15T00:28:09.676Z,7.07
2018-06-15T00:30:38.384Z,6.83
2018-06-15T00:33:14.073Z,6.93
2018-06-15T00:35:43.066Z,6.90
2018-06-15T00:38:13.804Z,7.73
2018-06-15T00:40:42.656Z,6.30
2018-06-15T00:43:19.255Z,7.63
2018-06-15T00:45:48.239Z,7.80
2018-06-15T00:48:20.743Z,7.00
2018-06-15T00:50:49.993Z,7.17
2018-06-15T00:53:20.096Z,7.20
2018-06-15T00:55:49.165Z,7.33
2018-06-15T00:58:21.774Z,7.33
2018-06-15T01:00:50.631Z,7.73
2018-06-15T01:03:23.434Z,7.57
2018-06-15T01:05:52.836Z,7.10
2018-06-15T01:08:25.525Z,9.17
2018-06-15T01:10:54.823Z,8.50
2018-06-15T01:13:30.809Z,7.57
2018-06-15T01:15:59.631Z,7.60
2018-06-15T01:18:30.218Z,7.03
2018-06-15T01:20:59.708Z,6.70
2018-06-15T01:23:35.603Z,7.03
2018-06-15T01:26:04.277Z,6.30
2018-06-15T01:28:40.717Z,7.07
2018-06-15T01:31:10.031Z,5.80
2018-06-15T01:33:38.879Z,6.60
2018-06-15T01:36:07.868Z,6.87
2018-06-15T01:38:44.118Z,5.77
2018-06-15T01:41:13.051Z,6.43
2018-06-15T01:43:43.308Z,6.57
2018-06-15T01:46:12.049Z,6.87
2018-06-15T01:48:45.504Z,7.33
2018-06-15T01:51:14.284Z,6.63
2018-06-15T01:53:50.441Z,6.77
2018-06-15T01:56:19.716Z,6.93
2018-06-15T01:58:50.158Z,7.23
2018-06-15T02:01:19.560Z,7.13
2018-06-15T02:03:52.427Z,6.93
2018-06-15T02:06:21.353Z,6.13
2018-06-15T02:08:54.066Z,6.37
2018-06-15T02:11:24.221Z,5.63
2018-06-15T02:13:55.944Z,6.30
2018-06-15T02:16:24.756Z,6.63
2018-06-15T02:19:01.210Z,6.70
2018-06-15T02:21:30.196Z,6.87
2018-06-15T02:24:02.643Z,6.83
2018-06-15T02:26:31.602Z,6.67
2018-06-15T02:29:03.359Z,7.17
2018-06-15T02:31:32.103Z,7.37
2018-06-15T02:34:08.988Z,6.57
2018-06-15T02:36:37.852Z,6.70
2018-06-15T02:39:12.581Z,8.40
2018-06-15T02:41:41.694Z,6.70
2018-06-15T02:44:12.845Z,7.50
2018-06-15T02:46:41.648Z,6.50
2018-06-15T02:49:17.791Z,7.33
2018-06-15T02:51:46.595Z,7.13
2018-06-15T02:54:15.380Z,6.67
2018-06-15T02:56:44.416Z,6.97
2018-06-15T02:59:16.836Z,6.90
2018-06-15T03:01:45.628Z,6.63
2018-06-15T03:04:20.194Z,7.00
2018-06-15T03:06:49.435Z,7.67
2018-06-15T03:09:22.050Z,7.47
2018-06-15T03:11:50.855Z,8.60
2018-06-15T03:14:27.961Z,7.90
2018-06-15T03:16:56.856Z,8.03
2018-06-15T03:19:27.133Z,8.40
2018-06-15T03:21:56.623Z,8.47
2018-06-15T03:24:28.933Z,8.20
2018-06-15T03:26:58.712Z,7.70
2018-06-15T03:29:29.969Z,8.63
2018-06-15T03:31:58.699Z,8.63
2018-06-15T03:34:34.639Z,9.17
2018-06-15T03:37:03.397Z,9.70
2018-06-15T03:39:33.862Z,9.57
2018-06-15T03:42:02.612Z,9.33
2018-06-15T03:44:35.909Z,9.40
2018-06-15T03:47:04.745Z,9.07
2018-06-15T03:49:40.940Z,10.07
2018-06-15T03:52:10.007Z,9.80
2018-06-15T03:54:40.492Z,9.80
2018-06-15T03:57:09.470Z,10.00
2018-06-15T03:59:42.426Z,9.80
2018-06-15T04:02:11.158Z,10.13
2018-06-15T04:04:47.681Z,10.33
2018-06-15T04:07:16.480Z,9.77
2018-06-15T04:09:48.633Z,12.10
2018-06-15T04:12:17.454Z,9.53
2018-06-15T04:14:53.760Z,10.67
2018-06-15T04:17:22.664Z,9.83
2018-06-15T04:19:51.467Z,9.70
2018-06-15T04:22:21.759Z,10.50
2018-06-15T04:24:56.167Z,8.87
2018-06-15T04:27:25.677Z,8.27
2018-06-15T04:29:56.175Z,8.63
2018-06-15T04:32:25.248Z,8.70
2018-06-15T04:35:01.438Z,9.43
2018-06-15T04:37:30.280Z,8.60
2018-06-15T04:39:59.622Z,8.97
2018-06-15T04:42:29.083Z,8.80
2018-06-15T04:45:02.086Z,7.97
2018-06-15T04:47:30.974Z,7.80
2018-06-15T04:50:04.150Z,8.73
2018-06-15T04:52:32.925Z,8.23
2018-06-15T04:55:09.794Z,9.73
2018-06-15T04:57:38.789Z,8.20
2018-06-15T05:00:08.653Z,8.40
2018-06-15T05:02:41.345Z,8.57
2018-06-15T05:05:11.690Z,8.63
2018-06-15T05:07:40.403Z,8.27
2018-06-15T05:10:17.181Z,7.87
2018-06-15T05:12:53.165Z,9.50
2018-06-15T05:15:22.164Z,9.73
2018-06-15T05:17:50.919Z,10.73
2018-06-15T05:20:20.227Z,11.07
2018-06-15T05:22:49.017Z,10.03
2018-06-15T05:25:21.537Z,9.63
2018-06-15T05:27:51.199Z,9.70
2018-06-15T05:30:23.396Z,9.37
2018-06-15T05:32:52.356Z,9.57
2018-06-15T05:35:25.129Z,9.50
2018-06-15T05:37:54.236Z,9.63
2018-06-15T05:40:30.056Z,9.07
2018-06-15T05:42:59.345Z,9.30
2018-06-15T05:45:29.564Z,8.07
2018-06-15T05:47:59.652Z,9.13
2018-06-15T05:50:32.252Z,9.17
2018-06-15T05:53:01.162Z,7.43
2018-06-15T05:55:33.708Z,7.20
2018-06-15T05:58:03.218Z,7.53
2018-06-15T06:00:35.802Z,7.10
2018-06-15T06:03:05.460Z,6.20
2018-06-15T06:05:38.020Z,5.93
2018-06-15T06:08:09.685Z,6.23
2018-06-15T06:10:38.736Z,6.03
2018-06-15T06:13:08.169Z,6.83
2018-06-15T06:15:41.269Z,7.73
2018-06-15T06:18:10.457Z,7.83
2018-06-15T06:20:46.038Z,8.47
2018-06-15T06:23:15.181Z,8.73
2018-06-15T06:25:46.218Z,8.40
2018-06-15T06:28:16.136Z,8.30
2018-06-15T06:30:49.212Z,7.90
2018-06-15T06:33:18.124Z,7.70
2018-06-15T06:35:50.915Z,9.00
2018-06-15T06:38:19.827Z,8.13
2018-06-15T06:40:56.308Z,6.80
2018-06-15T06:43:26.289Z,6.30
2018-06-15T06:45:55.388Z,7.03
2018-06-15T06:48:24.904Z,5.83
2018-06-15T06:50:58.762Z,6.20
2018-06-15T06:53:27.699Z,6.73
2018-06-15T06:56:00.685Z,5.40
2018-06-15T06:58:30.568Z,5.63
2018-06-15T07:01:02.022Z,5.73
2018-06-15T07:03:31.912Z,6.03
2018-06-15T07:06:08.188Z,6.17
2018-06-15T07:08:37.322Z,5.70
2018-06-15T07:11:09.630Z,5.20
2018-06-15T07:13:38.762Z,6.27
2018-06-15T07:16:15.143Z,4.50
2018-06-15T07:18:43.940Z,5.03
2018-06-15T07:21:13.749Z,4.53
2018-06-15T07:23:42.290Z,3.83
2018-06-15T07:26:18.091Z,3.90
2018-06-15T07:28:47.186Z,4.57
2018-06-15T07:31:16.711Z,4.03
2018-06-15T07:33:46.165Z,3.83
2018-06-15T07:36:19.185Z,4.43
2018-06-15T07:38:48.029Z,4.87
2018-06-15T07:41:25.231Z,4.37
2018-06-15T07:43:54.129Z,4.70
2018-06-15T07:46:26.597Z,5.10
2018-06-15T07:48:55.825Z,5.27
2018-06-15T07:51:26.418Z,5.13
2018-06-15T07:53:59.230Z,4.73
2018-06-15T07:56:28.376Z,4.87
2018-06-15T07:59:00.405Z,4.70
2018-06-15T08:01:30.449Z,3.60
2018-06-15T08:04:03.577Z,3.43
2018-06-15T08:06:33.317Z,3.27
2018-06-15T08:09:02.722Z,3.07
2018-06-15T08:11:35.740Z,2.63
2018-06-15T08:14:05.701Z,2.90
2018-06-15T08:16:38.609Z,2.60
2018-06-15T08:19:07.781Z,2.43
2018-06-15T08:21:40.402Z,1.90
2018-06-15T08:24:11.980Z,2.07
2018-06-15T08:26:42.225Z,1.87
2018-06-15T08:29:13.267Z,1.97
2018-06-15T08:31:44.517Z,2.10
2018-06-15T08:34:13.725Z,1.80
2018-06-15T08:36:46.707Z,2.10
2018-06-15T08:39:15.546Z,1.70
2018-06-15T08:41:52.176Z,1.93
2018-06-15T08:44:23.651Z,1.57
2018-06-15T08:46:54.129Z,1.13
2018-06-15T08:49:23.243Z,1.30
2018-06-15T08:51:52.704Z,1.33
2018-06-15T08:54:21.551Z,1.33
2018-06-15T08:56:58.796Z,1.03
2018-06-15T08:59:29.271Z,1.73
2018-06-15T09:01:58.154Z,1.20
2018-06-15T09:04:29.329Z,1.50
2018-06-15T09:07:01.694Z,1.07
2018-06-15T09:09:31.412Z,1.10
2018-06-15T09:12:02.986Z,1.40
2018-06-15T09:14:32.318Z,1.30
2018-06-15T09:18:33.075Z,1.00
2018-06-15T09:21:07.262Z,0.90
2018-06-15T09:23:36.078Z,1.60
2018-06-15T09:26:15.544Z,1.00
2018-06-15T09:28:44.698Z,1.00
2018-06-15T09:31:13.895Z,1.30
2018-06-15T09:33:42.752Z,1.20
2018-06-15T09:36:12.688Z,1.67
2018-06-15T09:38:41.648Z,1.20
2018-06-15T09:41:19.442Z,1.10
2018-06-15T09:43:49.981Z,0.90
2018-06-15T09:46:20.246Z,1.10
2018-06-15T09:48:49.193Z,0.97
2018-06-15T09:51:18.997Z,1.10
2018-06-15T09:53:48.206Z,0.90
2018-06-15T09:56:28.324Z,1.10
2018-06-15T09:59:04.097Z,1.03
2018-06-15T10:01:33.015Z,1.30
2018-06-15T10:04:03.072Z,1.07
2018-06-15T10:06:32.215Z,0.80
2018-06-15T10:09:01.752Z,0.90
2018-06-15T10:11:30.718Z,1.17
2018-06-15T10:14:09.955Z,0.87
2018-06-15T10:16:50.011Z,1.27
2018-06-15T10:19:19.397Z,0.93
2018-06-15T10:21:49.158Z,1.20
2018-06-15T10:24:18.197Z,1.00
2018-06-15T10:26:47.221Z,0.70
2018-06-15T10:29:17.673Z,0.70
2018-06-15T10:31:47.050Z,1.20
2018-06-15T10:34:16.204Z,0.70
2018-06-15T10:36:45.257Z,0.80
2018-06-15T10:39:14.802Z,0.80
2018-06-15T10:41:47.711Z,0.90
2018-06-15T10:44:19.106Z,1.37
2018-06-15T10:46:49.548Z,1.00
2018-06-15T10:49:18.467Z,0.90
2018-06-15T10:51:47.449Z,0.90
2018-06-15T10:54:16.654Z,0.87
2018-06-15T10:56:45.562Z,0.90
2018-06-15T10:59:16.422Z,1.00
2018-06-15T11:01:48.213Z,1.13
2018-06-15T11:04:17.236Z,0.90
2018-06-15T11:06:49.948Z,0.80
2018-06-15T11:09:19.182Z,1.00
2018-06-15T11:11:51.855Z,0.80
2018-06-15T11:14:21.159Z,0.90
2018-06-15T11:16:53.691Z,0.80
2018-06-15T11:19:23.679Z,1.47
2018-06-15T11:21:53.888Z,1.50
2018-06-15T11:24:23.450Z,1.40
2018-06-15T11:27:00.781Z,0.97
2018-06-15T11:29:29.610Z,1.10
2018-06-15T11:32:01.629Z,0.77
2018-06-15T11:34:37.025Z,1.10
2018-06-15T11:37:07.297Z,0.90
2018-06-15T11:39:37.149Z,1.03
2018-06-15T11:42:06.605Z,0.90
2018-06-15T11:44:37.485Z,1.10
2018-06-15T11:47:07.700Z,1.07
2018-06-15T11:49:37.684Z,1.07
2018-06-15T11:52:11.735Z,0.90
2018-06-15T11:54:42.214Z,0.80
2018-06-15T11:57:15.652Z,0.80
2018-06-15T11:59:45.484Z,1.00
2018-06-15T12:02:15.742Z,1.00
2018-06-15T12:04:46.132Z,1.30
2018-06-15T12:07:20.743Z,0.90
2018-06-15T12:09:50.833Z,1.30
2018-06-15T12:12:21.252Z,1.00
2018-06-15T12:17:25.862Z,0.90
2018-06-15T12:19:55.095Z,1.20
2018-06-15T12:22:25.463Z,1.10
2018-06-15T12:24:59.601Z,1.03
2018-06-15T12:27:29.184Z,1.53
2018-06-15T12:30:00.062Z,0.90
2018-06-15T12:32:31.912Z,1.10
2018-06-15T12:35:01.751Z,1.10
2018-06-15T12:37:31.340Z,1.00
2018-06-15T12:40:00.110Z,1.00
2018-06-15T12:42:33.657Z,1.07
2018-06-15T12:45:03.353Z,1.30
2018-06-15T12:47:33.133Z,1.33
2018-06-15T12:50:02.501Z,1.00
2018-06-15T12:52:32.455Z,0.90
2018-06-15T12:55:04.955Z,0.80
2018-06-15T12:57:37.673Z,1.23
2018-06-15T13:00:08.715Z,1.20
2018-06-15T13:02:39.699Z,1.00
2018-06-15T13:05:08.853Z,0.83
2018-06-15T13:07:38.190Z,0.83
2018-06-15T13:10:08.886Z,0.80
2018-06-15T13:12:41.454Z,1.10
2018-06-15T13:15:15.336Z,0.80
2018-06-15T13:17:45.245Z,1.13
2018-06-15T13:20:14.464Z,1.00
2018-06-15T13:22:47.030Z,1.57
2018-06-15T13:25:18.515Z,1.10
2018-06-15T13:27:48.872Z,0.80
2018-06-15T13:30:19.170Z,1.10
2018-06-15T13:32:51.732Z,1.20
2018-06-15T13:35:22.818Z,1.33
2018-06-15T13:37:52.629Z,1.00
2018-06-15T13:40:23.100Z,1.90
2018-06-15T13:43:10.182Z,0.90
2018-06-15T13:45:40.687Z,1.10
2018-06-15T13:48:09.493Z,1.00
2018-06-15T13:50:38.338Z,1.10
2018-06-15T13:53:08.259Z,1.70
2018-06-15T13:55:37.397Z,1.20
2018-06-15T13:58:06.294Z,1.70
2018-06-15T14:00:40.172Z,1.00
2018-06-15T14:03:10.181Z,1.33
2018-06-15T14:05:39.062Z,1.40
2018-06-15T14:08:08.213Z,1.40
2018-06-15T14:10:37.076Z,1.10
2018-06-15T14:13:07.356Z,1.00
2018-06-15T14:15:38.110Z,1.20
2018-06-15T14:18:11.953Z,1.10
2018-06-15T14:20:41.313Z,1.30
2018-06-15T14:23:13.149Z,1.47
2018-06-15T14:25:42.245Z,1.47
2018-06-15T14:28:15.221Z,1.80
2018-06-15T14:30:44.498Z,2.03
2018-06-15T14:33:19.987Z,1.90
2018-06-15T14:35:49.677Z,1.93
2018-06-15T14:38:18.715Z,1.30
2018-06-15T14:40:47.894Z,1.20
2018-06-15T14:43:24.094Z,1.53
2018-06-15T14:45:53.172Z,1.30
2018-06-15T14:48:23.166Z,1.40
2018-06-15T14:50:52.614Z,1.50
2018-06-15T14:53:25.124Z,1.10
2018-06-15T14:55:54.199Z,2.10
2018-06-15T14:58:28.712Z,1.20
2018-06-15T15:00:58.442Z,1.73
2018-06-15T15:04:15.274Z,1.40
2018-06-15T15:06:44.958Z,1.67
2018-06-15T15:09:14.039Z,1.10
2018-06-15T15:11:43.729Z,1.73
2018-06-15T15:14:20.941Z,1.30
2018-06-15T15:16:51.702Z,1.40
2018-06-15T15:19:21.023Z,1.20
2018-06-15T15:21:52.426Z,1.77
2018-06-15T15:24:24.002Z,1.30
2018-06-15T15:26:53.614Z,2.17
2018-06-15T15:29:23.310Z,2.00
2018-06-15T15:31:53.875Z,1.90
2018-06-15T15:34:23.469Z,1.43
2018-06-15T15:36:54.034Z,1.60
2018-06-15T15:39:22.981Z,1.30
2018-06-15T15:41:52.535Z,1.97
2018-06-15T15:44:23.208Z,1.30
2018-06-15T15:46:52.205Z,2.07
2018-06-15T15:49:21.605Z,1.63
2018-06-15T15:51:50.507Z,1.30
2018-06-15T15:54:19.321Z,1.53
2018-06-15T15:56:50.741Z,1.53
2018-06-15T15:59:20.938Z,1.43
2018-06-15T16:01:55.961Z,1.53
2018-06-15T16:04:25.093Z,1.27
2018-06-15T16:06:55.657Z,1.40
2018-06-15T16:09:25.482Z,1.67
2018-06-15T16:11:58.182Z,1.33
2018-06-15T16:14:27.317Z,1.40
2018-06-15T16:17:00.240Z,1.20
2018-06-15T16:19:33.067Z,1.10
2018-06-15T16:22:02.606Z,1.20
2018-06-15T16:24:32.467Z,1.30
2018-06-15T16:27:05.025Z,1.30
2018-06-15T16:29:36.326Z,1.33
2018-06-15T16:32:07.875Z,1.57
2018-06-15T16:34:37.836Z,1.37
2018-06-15T16:37:08.721Z,1.23
2018-06-15T16:39:40.133Z,1.30
2018-06-15T16:42:14.355Z,1.90
2018-06-15T16:44:45.732Z,1.83
2018-06-15T16:47:14.709Z,2.30
2018-06-15T16:49:43.705Z,1.90
2018-06-15T16:52:15.613Z,1.53
2018-06-15T16:54:44.718Z,2.07
2018-06-15T16:57:21.387Z,1.80
2018-06-15T16:59:50.591Z,1.80
2018-06-15T17:02:20.413Z,1.60
2018-06-15T17:04:49.963Z,1.67
2018-06-15T17:07:23.564Z,1.50
2018-06-15T17:09:54.262Z,1.90
2018-06-15T17:12:24.030Z,1.20
2018-06-15T17:14:53.485Z,1.57
2018-06-15T17:17:27.343Z,1.60
2018-06-15T17:19:59.280Z,1.97
2018-06-15T17:22:30.022Z,1.37
2018-06-15T17:24:59.793Z,1.90
2018-06-15T17:27:30.127Z,1.73
2018-06-15T17:30:00.190Z,1.60
2018-06-15T17:32:30.745Z,1.60
2018-06-15T17:35:00.450Z,1.53
2018-06-15T17:37:32.799Z,1.73
2018-06-15T17:40:02.176Z,1.57
2018-06-15T17:42:38.777Z,1.70
2018-06-15T17:45:07.714Z,1.57
2018-06-15T17:47:37.733Z,1.90
2018-06-15T17:50:07.348Z,1.37
2018-06-15T17:52:39.699Z,1.77
2018-06-15T17:55:08.713Z,1.53
2018-06-15T17:57:43.504Z,2.20
2018-06-15T18:00:13.182Z,1.70
2018-06-15T18:02:56.903Z,1.20
2018-06-15T18:08:04.013Z,1.97
2018-06-15T18:10:37.282Z,1.90
2018-06-15T18:13:18.652Z,2.17
2018-06-15T18:15:51.189Z,1.60
2018-06-15T18:21:55.591Z,1.57
2018-06-15T18:24:26.596Z,1.93
2018-06-15T18:26:55.746Z,1.70
2018-06-15T18:29:25.190Z,1.60
2018-06-15T18:31:56.447Z,2.33
2018-06-15T18:38:29.289Z,1.80
2018-06-15T18:41:04.875Z,2.47
2018-06-15T18:43:34.153Z,2.47
2018-06-15T18:46:04.258Z,2.37
2018-06-15T18:48:34.689Z,2.33
2018-06-15T18:51:06.150Z,2.33
2018-06-15T18:53:40.889Z,2.37
2018-06-15T18:56:13.140Z,2.57
2018-06-15T18:58:43.338Z,1.90
2018-06-15T19:01:13.304Z,1.83
2018-06-15T19:03:47.218Z,1.90
2018-06-15T19:06:16.342Z,1.80
2018-06-15T19:08:45.522Z,1.43
2018-06-15T19:11:14.631Z,1.30
2018-06-15T19:13:44.802Z,2.23
2018-06-15T19:16:16.319Z,2.50
2018-06-15T19:18:46.570Z,2.20
2018-06-15T19:21:18.348Z,2.30
2018-06-15T19:23:47.745Z,2.37
2018-06-15T19:26:21.123Z,2.50
2018-06-15T19:28:50.834Z,2.43
2018-06-15T19:31:22.742Z,2.10
2018-06-15T19:33:51.677Z,2.20
2018-06-15T19:36:24.298Z,2.13
2018-06-15T19:38:53.753Z,2.67
2018-06-15T19:41:24.472Z,2.67
2018-06-15T19:43:53.311Z,1.60
2018-06-15T19:46:30.755Z,2.00
2018-06-15T19:48:59.903Z,1.90
2018-06-15T19:51:29.387Z,2.40
2018-06-15T19:53:59.474Z,2.17
2018-06-15T19:56:30.462Z,2.23
2018-06-15T19:58:59.730Z,2.50
2018-06-15T20:01:36.095Z,2.90
2018-06-15T20:04:05.521Z,2.07
2018-06-15T20:06:35.576Z,2.93
2018-06-15T20:09:06.757Z,3.30
2018-06-15T20:11:39.764Z,2.70
2018-06-15T20:14:08.738Z,2.70
2018-06-15T20:16:39.331Z,2.43
2018-06-15T20:19:09.848Z,2.20
2018-06-15T20:21:42.718Z,2.80
2018-06-15T20:24:19.233Z,3.23
2018-06-15T20:26:49.519Z,2.83
2018-06-15T20:29:20.269Z,3.23
2018-06-15T20:31:56.253Z,2.87
2018-06-15T20:34:27.304Z,2.47
2018-06-15T20:36:56.951Z,3.00
2018-06-15T20:39:26.009Z,2.57
2018-06-15T20:41:55.942Z,3.57
2018-06-15T20:44:25.395Z,3.57
2018-06-15T20:46:55.565Z,3.53
2018-06-15T20:49:26.465Z,4.23
2018-06-15T20:51:58.646Z,3.60
2018-06-15T20:54:27.717Z,3.43
2018-06-15T20:56:57.546Z,3.80
2018-06-15T20:59:26.663Z,4.07
2018-06-15T21:03:29.023Z,3.57
2018-06-15T21:06:01.292Z,4.43
2018-06-15T21:08:32.375Z,4.20
2018-06-15T21:11:03.174Z,3.70
2018-06-15T21:13:32.253Z,4.00
2018-06-15T21:16:05.331Z,4.90
2018-06-15T21:22:10.198Z,4.40
2018-06-15T21:24:40.379Z,4.60
2018-06-15T21:27:11.187Z,3.77
2018-06-15T21:29:40.460Z,3.33
2018-06-15T21:32:13.183Z,3.77
2018-06-15T21:34:43.302Z,3.13
2018-06-15T21:37:16.307Z,3.27
2018-06-15T21:39:46.155Z,3.90
2018-06-15T21:42:16.713Z,3.50
2018-06-15T21:44:46.652Z,2.97
2018-06-15T21:47:20.483Z,3.93
2018-06-15T21:49:50.851Z,3.50
2018-06-15T21:52:21.866Z,3.07
2018-06-15T21:54:51.165Z,3.40
2018-06-15T21:57:22.214Z,3.23
2018-06-15T21:59:53.383Z,3.93
2018-06-15T22:02:24.336Z,4.13
2018-06-15T22:04:55.243Z,3.57
2018-06-15T22:07:27.185Z,3.63
2018-06-15T22:09:56.384Z,2.97
2018-06-15T22:12:28.187Z,4.17
2018-06-15T22:14:58.328Z,3.97
2018-06-15T22:17:32.631Z,3.30
2018-06-15T22:20:03.669Z,3.47
2018-06-15T22:22:32.956Z,3.43
2018-06-15T22:25:02.215Z,3.73
2018-06-15T22:27:34.742Z,3.37
2018-06-15T22:30:04.619Z,3.67
2018-06-15T22:32:39.863Z,3.77
2018-06-15T22:35:11.122Z,2.87
2018-06-15T22:37:41.044Z,3.70
2018-06-15T22:40:11.297Z,4.17
2018-06-15T22:42:41.496Z,4.00
2018-06-15T22:45:11.231Z,3.03
2018-06-15T22:47:43.713Z,3.40
2018-06-15T22:50:16.227Z,3.27
2018-06-15T22:52:46.462Z,2.93
2018-06-15T22:55:15.810Z,3.07
2018-06-15T22:57:47.181Z,2.63
2018-06-15T23:00:18.608Z,2.53
2018-06-15T23:02:52.181Z,2.83
2018-06-15T23:05:21.931Z,2.43
2018-06-15T23:07:51.748Z,2.00
2018-06-15T23:10:21.340Z,2.80
2018-06-15T23:12:57.757Z,2.53
2018-06-15T23:15:27.206Z,2.37
2018-06-15T23:17:56.086Z,1.80
2018-06-15T23:20:25.966Z,2.20
2018-06-15T23:22:58.515Z,1.90
2018-06-15T23:25:28.168Z,1.80
2018-06-15T23:28:00.385Z,1.93
2018-06-15T23:30:29.442Z,2.10
2018-06-15T23:33:05.508Z,2.30
2018-06-15T23:35:34.989Z,2.07
2018-06-15T23:38:04.715Z,3.20
2018-06-15T23:40:34.182Z,2.53
2018-06-15T23:43:12.152Z,2.47
2018-06-15T23:45:41.612Z,2.20
2018-06-15T23:48:10.708Z,2.07
2018-06-15T23:50:40.174Z,1.73
2018-06-15T23:53:13.716Z,2.50
2018-06-15T23:55:43.103Z,1.80
2018-06-15T23:58:13.332Z,2.30
